Time;durP1;ratioP1;P1;durP2;ratioP2;P2;SDS_P1;SDS_P2;PMS_P1;PMS_P2;Temp;Humidity;BMP_temperature;BMP_pressure;BME280_temperature;BME280_humidity;BME280_pressure;Samples;Min_cycle;Max_cycle;Signal;HPM_P1;HPM_P2
2022/01/12 00:01:05;;;;;;;;;;;-4.60;99.90;;;;;;5074197;28;19912;-76
2022/01/12 00:03:31;;;;;;;;;;;-4.80;99.90;;;;;;5073964;28;19961;-76
2022/01/12 00:05:57;;;;;;;;;;;-4.80;99.90;;;;;;5073921;28;19936;-76
2022/01/12 00:08:22;;;;;;;;;;;-4.60;99.90;;;;;;5080649;28;19955;-73
2022/01/12 00:10:48;;;;;;;;;;;-4.70;99.90;;;;;;5084227;28;19908;-76
2022/01/12 00:13:14;;;;;;;;;;;-4.70;99.90;;;;;;5073692;28;20281;-76
2022/01/12 00:15:39;;;;;;;;;;;-4.60;99.90;;;;;;5073944;28;19916;-76
2022/01/12 00:18:05;;;;;;;;;;;-4.50;99.90;;;;;;5074309;28;19923;-76
2022/01/12 00:20:30;;;;;;;;;;;-4.40;99.90;;;;;;5073928;28;20383;-75
2022/01/12 00:22:57;;;;;;;;;;;-4.60;99.90;;;;;;5073596;28;20034;-76
2022/01/12 00:25:29;;;;;;;;;;;-4.60;99.90;;;;;;5073752;28;19908;-76
2022/01/12 00:33:23;;;;;;;;;;;-4.80;99.90;;;;;;5073504;28;19915;-75
2022/01/12 00:35:50;;;;;;;;;;;-4.80;99.90;;;;;;5073756;28;19908;-76
2022/01/12 00:38:16;;;;;;;;;;;-4.70;99.90;;;;;;5075056;28;19912;-76
2022/01/12 00:40:43;;;;;;;;;;;-4.80;99.90;;;;;;5073378;28;19908;-75
2022/01/12 00:43:09;;;;;;;;;;;-4.90;99.90;;;;;;5073165;28;20266;-76
2022/01/12 00:45:37;;;;;;;;;;;-4.90;99.90;;;;;;5073370;28;19919;-75
2022/01/12 00:48:03;;;;;;;;;;;-5.10;99.90;;;;;;5055435;28;20296;-76
2022/01/12 00:50:29;;;;;;;;;;;-5.10;99.90;;;;;;5073604;28;19913;-76
2022/01/12 00:52:54;;;;;;;;;;;-4.90;99.90;;;;;;5073047;28;19916;-75
2022/01/12 00:55:20;;;;;;;;;;;-4.90;99.90;;;;;;5055112;28;20018;-75
2022/01/12 00:57:46;;;;;;;;;;;-4.90;99.90;;;;;;5073159;28;20327;-76
2022/01/12 01:00:12;;;;;;;;;;;-4.80;99.90;;;;;;5073168;28;19938;-76
2022/01/12 01:02:37;;;;;;;;;;;-4.90;99.90;;;;;;5073191;28;19931;-74
2022/01/12 01:05:03;;;;;;;;;;;-4.90;99.90;;;;;;5054768;28;19956;-76
2022/01/12 01:07:29;;;;;;;;;;;-5.10;99.90;;;;;;5087072;28;19893;-75
2022/01/12 01:10:03;;;;;;;;;;;-5.10;99.90;;;;;;5087844;28;19915;-75
2022/01/12 01:12:29;;;;;;;;;;;-5.10;99.90;;;;;;5073609;28;19923;-76
2022/01/12 01:15:05;;;;;;;;;;;-5.10;99.90;;;;;;5054570;28;19928;-75
2022/01/12 01:25:36;;;;;;;;;;;-5.10;99.90;;;;;;5073059;28;20471;-76
2022/01/12 01:28:03;;;;;;;;;;;-5.20;99.90;;;;;;5054465;28;19908;-76
2022/01/12 01:30:28;;;;;;;;;;;-5.20;99.90;;;;;;5054717;28;20293;-75
2022/01/12 01:32:56;;;;;;;;;;;-5.20;99.90;;;;;;5072582;28;19912;-75
2022/01/12 01:35:26;;;;;;;;;;;-5.20;99.90;;;;;;5072257;28;20003;-76
2022/01/12 01:37:51;;;;;;;;;;;-5.20;99.90;;;;;;5073918;28;19918;-76
2022/01/12 01:40:17;;;;;;;;;;;-5.20;99.90;;;;;;5071459;28;20003;-75
2022/01/12 01:53:30;;;;;;;;;;;-5.20;99.90;;;;;;5072125;28;20005;-75
2022/01/12 01:55:55;;;;;;;;;;;-5.00;99.90;;;;;;5071960;28;19912;-75
2022/01/12 01:58:21;;;;;;;;;;;-5.10;99.90;;;;;;5071942;28;19996;-75
2022/01/12 02:00:46;;;;;;;;;;;-5.20;99.90;;;;;;5071978;28;19912;-75
2022/01/12 02:03:12;;;;;;;;;;;-5.20;99.90;;;;;;5071705;28;19908;-75
2022/01/12 02:05:38;;;;;;;;;;;-5.00;99.90;;;;;;5071806;28;20373;-75
2022/01/12 02:08:04;;;;;;;;;;;-4.90;99.90;;;;;;5073220;28;19955;-76
2022/01/12 02:10:29;;;;;;;;;;;-5.00;99.90;;;;;;5071531;28;19951;-75
2022/01/12 02:12:55;;;;;;;;;;;-4.90;99.90;;;;;;5071379;28;19913;-76
2022/01/12 02:15:22;;;;;;;;;;;-4.90;99.90;;;;;;5053323;28;19920;-75
2022/01/12 02:35:10;;;;;;;;;;;-5.30;99.90;;;;;;5071815;28;19908;-76
2022/01/12 02:40:06;;;;;;;;;;;-5.70;99.90;;;;;;5071278;28;19923;-76
2022/01/12 02:42:32;;;;;;;;;;;-5.70;99.90;;;;;;5071109;28;20342;-76
2022/01/12 02:50:45;;;;;;;;;;;-5.50;99.90;;;;;;5071298;28;19959;-75
2022/01/12 02:55:56;;;;;;;;;;;-5.70;99.90;;;;;;5071318;28;20376;-76
2022/01/12 02:58:22;;;;;;;;;;;-5.80;99.90;;;;;;5071249;28;19909;-76
2022/01/12 03:03:36;;;;;;;;;;;-5.80;99.90;;;;;;5071043;28;19908;-75
2022/01/12 03:06:04;;;;;;;;;;;-5.80;99.90;;;;;;5071076;28;19958;-76
2022/01/12 03:08:37;;;;;;;;;;;-5.90;99.90;;;;;;5072597;28;19931;-76
2022/01/12 03:11:09;;;;;;;;;;;-6.00;99.90;;;;;;5064812;28;19908;-76
2022/01/12 03:13:35;;;;;;;;;;;-5.90;99.90;;;;;;5090837;28;19908;-75
2022/01/12 03:16:02;;;;;;;;;;;-5.90;99.90;;;;;;5090920;28;19923;-75
2022/01/12 03:18:28;;;;;;;;;;;-5.90;99.90;;;;;;5073127;28;19915;-75
2022/01/12 03:20:53;;;;;;;;;;;-5.70;99.90;;;;;;5091099;28;19908;-76
2022/01/12 03:23:19;;;;;;;;;;;-5.80;99.90;;;;;;5072748;28;20010;-75
2022/01/12 03:25:44;;;;;;;;;;;-5.90;99.90;;;;;;5091137;28;19912;-75
2022/01/12 03:28:10;;;;;;;;;;;-5.80;99.90;;;;;;5091066;28;19934;-75
2022/01/12 03:30:47;;;;;;;;;;;-5.70;99.90;;;;;;5090911;28;19938;-76
2022/01/12 03:33:31;;;;;;;;;;;-5.60;99.90;;;;;;5090647;28;19908;-76
2022/01/12 03:36:43;;;;;;;;;;;-5.90;99.90;;;;;;5090833;28;19948;-76
2022/01/12 03:38:42;;;;;;;;;;;-5.90;99.90;;;;;;5066819;28;20401;-76
2022/01/12 03:41:08;;;;;;;;;;;-5.70;99.90;;;;;;5052407;28;19909;-75
2022/01/12 03:43:33;;;;;;;;;;;-5.90;99.90;;;;;;5070458;28;19912;-75
2022/01/12 03:45:59;;;;;;;;;;;-6.10;99.90;;;;;;5070570;28;20269;-76
2022/01/12 03:48:24;;;;;;;;;;;-6.10;99.90;;;;;;5070624;28;19956;-75
2022/01/12 03:50:50;;;;;;;;;;;-6.10;99.90;;;;;;5070630;28;19908;-74
2022/01/12 03:53:15;;;;;;;;;;;-6.20;99.90;;;;;;5068616;28;19944;-75
2022/01/12 03:55:41;;;;;;;;;;;-5.90;99.90;;;;;;5067492;28;19934;-75
2022/01/12 03:58:10;;;;;;;;;;;-5.90;99.90;;;;;;5066936;28;20578;-75
2022/01/12 04:00:36;;;;;;;;;;;-6.20;99.90;;;;;;5049296;28;19912;-75
2022/01/12 04:03:04;;;;;;;;;;;-6.30;99.90;;;;;;5066526;28;19909;-75
2022/01/12 04:10:39;;;;;;;;;;;-6.40;99.90;;;;;;5072167;28;20367;-75
2022/01/12 04:13:04;;;;;;;;;;;-6.40;99.90;;;;;;5073513;28;19908;-74
2022/01/12 04:15:30;;;;;;;;;;;-6.40;99.90;;;;;;5073951;28;20381;-75
2022/01/12 04:17:55;;;;;;;;;;;-6.20;99.90;;;;;;5073916;28;19912;-75
2022/01/12 04:20:21;;;;;;;;;;;-6.30;99.90;;;;;;5056115;28;20349;-75
2022/01/12 04:25:31;;;;;;;;;;;-6.20;99.90;;;;;;5074134;28;19916;-75
2022/01/12 04:27:56;;;;;;;;;;;-6.00;99.90;;;;;;5073897;28;20208;-74
2022/01/12 04:30:22;;;;;;;;;;;-6.10;99.90;;;;;;5074621;28;20312;-74
2022/01/12 04:32:47;;;;;;;;;;;-6.10;99.90;;;;;;5073821;28;19912;-74
2022/01/12 04:35:15;;;;;;;;;;;-6.10;99.90;;;;;;5073400;28;20293;-75
2022/01/12 04:37:40;;;;;;;;;;;-6.10;99.90;;;;;;5075229;28;19918;-74
2022/01/12 04:40:06;;;;;;;;;;;-6.10;99.90;;;;;;5073570;28;20003;-74
2022/01/12 04:42:34;;;;;;;;;;;-6.10;99.90;;;;;;5074144;28;20341;-75
2022/01/12 04:45:14;;;;;;;;;;;-6.00;99.90;;;;;;5073915;28;20335;-74
2022/01/12 04:47:59;;;;;;;;;;;-6.10;99.90;;;;;;5077380;28;19908;-76
2022/01/12 04:50:25;;;;;;;;;;;-6.20;99.90;;;;;;5073565;28;19915;-75
2022/01/12 04:52:51;;;;;;;;;;;-6.10;99.90;;;;;;5073072;28;19954;-76
2022/01/12 04:55:17;;;;;;;;;;;-6.00;99.90;;;;;;5072856;28;19912;-76
2022/01/12 04:57:42;;;;;;;;;;;-5.90;99.90;;;;;;5073044;28;19923;-74
2022/01/12 05:00:14;;;;;;;;;;;-6.10;99.90;;;;;;5073243;28;19909;-75
2022/01/12 05:13:23;;;;;;;;;;;-6.50;99.90;;;;;;5073055;28;20243;-76
2022/01/12 05:15:49;;;;;;;;;;;-6.60;99.90;;;;;;5053972;28;19923;-75
2022/01/12 05:18:15;;;;;;;;;;;-6.40;99.90;;;;;;5054886;28;20519;-75
2022/01/12 05:20:40;;;;;;;;;;;-6.30;99.90;;;;;;5072935;28;19908;-75
2022/01/12 05:23:06;;;;;;;;;;;-6.50;99.90;;;;;;5072541;28;19934;-76
2022/01/12 05:25:31;;;;;;;;;;;-6.40;99.90;;;;;;5072780;28;20171;-75
2022/01/12 05:27:57;;;;;;;;;;;-6.50;99.90;;;;;;5073073;28;19908;-75
2022/01/12 05:30:22;;;;;;;;;;;-6.60;99.90;;;;;;5072696;28;19920;-75
2022/01/12 05:32:48;;;;;;;;;;;-6.60;99.90;;;;;;5054786;28;19912;-76
2022/01/12 05:35:16;;;;;;;;;;;-6.60;99.90;;;;;;5072217;28;19909;-75
2022/01/12 05:37:44;;;;;;;;;;;-6.70;99.90;;;;;;5073920;28;20349;-75
2022/01/12 05:40:09;;;;;;;;;;;-6.80;99.90;;;;;;5072351;28;20372;-75
2022/01/12 05:42:35;;;;;;;;;;;-6.70;99.90;;;;;;5054954;28;19913;-75
2022/01/12 05:45:01;;;;;;;;;;;-6.60;99.90;;;;;;5054034;28;19962;-75
2022/01/12 05:49:34;;;;;;;;;;;-6.50;99.90;;;;;;5054706;28;19954;-75
2022/01/12 05:50:26;;;;;;;;;;;-6.50;99.90;;;;;;5072112;28;19930;-74
2022/01/12 05:52:51;;;;;;;;;;;-6.40;99.90;;;;;;5072469;28;19916;-75
2022/01/12 05:55:18;;;;;;;;;;;-6.40;99.90;;;;;;5071836;28;19908;-75
2022/01/12 05:57:43;;;;;;;;;;;-6.60;99.90;;;;;;5072296;28;20364;-75
2022/01/12 06:00:11;;;;;;;;;;;-6.70;99.90;;;;;;5072022;28;19954;-74
2022/01/12 06:02:36;;;;;;;;;;;-6.60;99.90;;;;;;5072169;28;19908;-75
2022/01/12 06:05:02;;;;;;;;;;;-6.60;99.90;;;;;;5071969;28;19970;-75
2022/01/12 06:07:28;;;;;;;;;;;-6.70;99.90;;;;;;5072512;28;19908;-75
2022/01/12 06:09:53;;;;;;;;;;;-6.60;99.90;;;;;;5072993;28;19908;-75
2022/01/12 06:12:19;;;;;;;;;;;-6.40;99.90;;;;;;5072151;28;19971;-75
2022/01/12 06:14:44;;;;;;;;;;;-6.40;99.90;;;;;;5071175;28;19920;-75
2022/01/12 06:17:11;;;;;;;;;;;-6.40;99.90;;;;;;5072294;28;19974;-75
2022/01/12 06:19:36;;;;;;;;;;;-6.30;99.90;;;;;;5053949;28;20003;-75
2022/01/12 06:22:02;;;;;;;;;;;-6.30;99.90;;;;;;5071699;28;20373;-75
2022/01/12 06:24:28;;;;;;;;;;;-6.30;99.90;;;;;;5071437;28;19912;-75
2022/01/12 06:26:54;;;;;;;;;;;-6.30;99.90;;;;;;5071514;28;19997;-75
2022/01/12 06:31:51;;;;;;;;;;;-6.30;99.90;;;;;;5071721;28;19908;-75
2022/01/12 06:34:16;;;;;;;;;;;-6.20;99.90;;;;;;5071532;28;19954;-76
2022/01/12 06:36:42;;;;;;;;;;;-6.30;99.90;;;;;;5071728;28;19916;-75
2022/01/12 06:39:09;;;;;;;;;;;-6.60;99.90;;;;;;5073024;28;19931;-75
2022/01/12 06:41:38;;;;;;;;;;;-6.80;99.90;;;;;;5071569;28;19908;-75
2022/01/12 06:44:04;;;;;;;;;;;-6.80;99.90;;;;;;5071270;28;20061;-75
2022/01/12 06:46:31;;;;;;;;;;;-6.80;99.90;;;;;;5071422;28;19913;-75
2022/01/12 06:48:57;;;;;;;;;;;-6.80;99.90;;;;;;5071481;28;20003;-75
2022/01/12 06:51:22;;;;;;;;;;;-6.80;99.90;;;;;;5053206;28;19986;-76
2022/01/12 06:53:48;;;;;;;;;;;-6.70;99.90;;;;;;5052968;28;19908;-75
2022/01/12 06:56:15;;;;;;;;;;;-6.80;99.90;;;;;;5071352;28;20373;-75
2022/01/12 06:58:44;;;;;;;;;;;-6.90;99.90;;;;;;5053510;28;20358;-75
2022/01/12 07:01:10;;;;;;;;;;;-6.80;99.90;;;;;;5071426;28;20284;-75
2022/01/12 07:03:35;;;;;;;;;;;-6.60;99.90;;;;;;5071025;28;20006;-75
2022/01/12 07:06:01;;;;;;;;;;;-6.90;99.90;;;;;;5071118;28;19909;-75
2022/01/12 07:08:27;;;;;;;;;;;-6.80;99.90;;;;;;5054810;28;19908;-75
2022/01/12 07:10:52;;;;;;;;;;;-6.80;99.90;;;;;;5069332;28;19908;-74
2022/01/12 07:13:18;;;;;;;;;;;-6.80;99.90;;;;;;5082684;28;19908;-75
2022/01/12 07:15:44;;;;;;;;;;;-6.70;99.90;;;;;;5084324;28;19916;-75
2022/01/12 07:18:09;;;;;;;;;;;-6.50;99.90;;;;;;5087689;28;19908;-75
2022/01/12 07:20:35;;;;;;;;;;;-6.40;99.90;;;;;;5075020;28;19912;-75
2022/01/12 07:23:00;;;;;;;;;;;-6.30;99.90;;;;;;5059478;28;19934;-76
2022/01/12 07:25:26;;;;;;;;;;;-6.50;99.90;;;;;;5064026;28;19916;-75
2022/01/12 07:27:52;;;;;;;;;;;-6.40;99.90;;;;;;5055701;28;19912;-75
2022/01/12 07:30:17;;;;;;;;;;;-6.30;99.90;;;;;;5076710;28;19931;-76
2022/01/12 07:32:43;;;;;;;;;;;-6.40;99.90;;;;;;5091355;28;19915;-75
2022/01/12 07:35:09;;;;;;;;;;;-6.50;99.90;;;;;;5091075;28;19912;-76
2022/01/12 07:37:34;;;;;;;;;;;-6.60;99.90;;;;;;5091623;28;20003;-75
2022/01/12 07:40:00;;;;;;;;;;;-6.60;99.90;;;;;;5070010;28;20014;-75
2022/01/12 07:42:26;;;;;;;;;;;-6.50;99.90;;;;;;5076198;28;19958;-75
2022/01/12 07:44:58;;;;;;;;;;;-6.50;99.90;;;;;;5096208;28;19915;-75
2022/01/12 07:47:24;;;;;;;;;;;-6.40;99.90;;;;;;5099228;28;19918;-75
2022/01/12 07:49:50;;;;;;;;;;;-6.20;99.90;;;;;;5099104;28;20006;-75
2022/01/12 07:52:15;;;;;;;;;;;-6.10;99.90;;;;;;5098940;28;19957;-75
2022/01/12 07:54:41;;;;;;;;;;;-6.10;99.90;;;;;;5097496;28;20280;-75
2022/01/12 07:57:06;;;;;;;;;;;-6.10;99.90;;;;;;5098949;28;19909;-75
2022/01/12 07:59:32;;;;;;;;;;;-5.90;99.90;;;;;;5098369;28;19912;-75
2022/01/12 08:01:57;;;;;;;;;;;-5.90;99.90;;;;;;5098315;28;19915;-75
2022/01/12 08:04:23;;;;;;;;;;;-5.90;99.90;;;;;;5097252;28;19916;-75
2022/01/12 08:06:48;;;;;;;;;;;-5.90;99.90;;;;;;5096239;28;19912;-75
2022/01/12 08:09:14;;;;;;;;;;;-5.90;99.90;;;;;;5081671;28;19909;-75
2022/01/12 08:11:39;;;;;;;;;;;-5.80;99.90;;;;;;5057251;28;20014;-75
2022/01/12 08:14:05;;;;;;;;;;;-5.70;99.90;;;;;;5075605;28;19913;-76
2022/01/12 08:16:30;;;;;;;;;;;-5.50;99.90;;;;;;5056463;28;19912;-75
2022/01/12 08:18:56;;;;;;;;;;;-5.50;99.90;;;;;;5056513;28;20028;-75
2022/01/12 08:21:22;;;;;;;;;;;-5.40;99.90;;;;;;5074978;28;19915;-75
2022/01/12 08:23:47;;;;;;;;;;;-5.10;99.90;;;;;;5074366;28;19916;-75
2022/01/12 08:26:13;;;;;;;;;;;-4.90;99.90;;;;;;5074700;28;19908;-75
2022/01/12 08:28:38;;;;;;;;;;;-4.60;99.90;;;;;;5057483;28;19908;-76
2022/01/12 08:31:04;;;;;;;;;;;-3.70;99.90;;;;;;5074322;28;19916;-76
2022/01/12 08:33:29;;;;;;;;;;;-3.40;99.90;;;;;;5074231;28;19915;-76
2022/01/12 08:35:55;;;;;;;;;;;-2.70;99.90;;;;;;5074414;28;19918;-76
2022/01/12 08:38:21;;;;;;;;;;;-2.10;99.90;;;;;;5075496;28;19995;-77
2022/01/12 08:40:46;;;;;;;;;;;-1.00;99.90;;;;;;5072894;28;19912;-77
2022/01/12 08:43:13;;;;;;;;;;;-1.40;99.90;;;;;;5055486;28;20369;-76
2022/01/12 08:45:38;;;;;;;;;;;-1.30;99.90;;;;;;5074203;28;19932;-78
2022/01/12 08:48:04;;;;;;;;;;;-1.20;99.90;;;;;;5074207;28;20366;-76
2022/01/12 08:50:29;;;;;;;;;;;-0.70;99.90;;;;;;5074135;28;19956;-76
2022/01/12 08:52:55;;;;;;;;;;;0.50;99.90;;;;;;5055176;28;19913;-77
2022/01/12 08:55:21;;;;;;;;;;;0.80;99.90;;;;;;5073867;28;19915;-76
2022/01/12 08:57:47;;;;;;;;;;;1.50;99.90;;;;;;5073532;28;19931;-76
2022/01/12 09:00:13;;;;;;;;;;;1.80;99.90;;;;;;5073028;28;20353;-76
2022/01/12 09:02:38;;;;;;;;;;;1.80;99.90;;;;;;5073463;28;19930;-77
2022/01/12 09:05:05;;;;;;;;;;;1.80;99.90;;;;;;5073051;28;19995;-77
2022/01/12 09:07:30;;;;;;;;;;;1.80;99.90;;;;;;5073974;28;19959;-77
2022/01/12 09:09:56;;;;;;;;;;;1.40;99.90;;;;;;5084839;28;19940;-77
2022/01/12 09:12:21;;;;;;;;;;;1.40;99.90;;;;;;5093937;28;19930;-77
2022/01/12 09:14:48;;;;;;;;;;;2.10;99.90;;;;;;5075117;28;19916;-77
2022/01/12 09:17:18;;;;;;;;;;;3.20;99.90;;;;;;5093888;28;20265;-77
2022/01/12 09:19:45;;;;;;;;;;;2.90;99.90;;;;;;5093511;28;19934;-77
2022/01/12 09:22:10;;;;;;;;;;;2.90;99.90;;;;;;5093484;28;20356;-75
2022/01/12 09:24:36;;;;;;;;;;;2.70;99.90;;;;;;5093319;28;19908;-77
2022/01/12 09:27:01;;;;;;;;;;;2.90;99.90;;;;;;5093369;28;19912;-77
2022/01/12 09:29:27;;;;;;;;;;;2.70;99.90;;;;;;5088932;28;19924;-77
2022/01/12 09:31:52;;;;;;;;;;;2.70;99.90;;;;;;5054612;28;20284;-77
2022/01/12 09:34:18;;;;;;;;;;;3.40;99.90;;;;;;5055680;28;19908;-77
2022/01/12 09:36:43;;;;;;;;;;;3.80;99.90;;;;;;5073910;28;19932;-74
2022/01/12 09:39:09;;;;;;;;;;;4.00;99.70;;;;;;5074960;28;19908;-74
2022/01/12 09:41:35;;;;;;;;;;;4.00;99.90;;;;;;5076243;28;19915;-74
2022/01/12 09:44:01;;;;;;;;;;;4.90;99.80;;;;;;5073128;28;19979;-74
2022/01/12 09:46:27;;;;;;;;;;;5.60;98.30;;;;;;5054444;28;19997;-74
2022/01/12 09:48:53;;;;;;;;;;;6.40;95.00;;;;;;5072754;28;20377;-74
2022/01/12 09:51:19;;;;;;;;;;;6.80;94.50;;;;;;5054463;28;19908;-74
2022/01/12 09:53:44;;;;;;;;;;;6.10;93.40;;;;;;5072377;28;19909;-75
2022/01/12 09:56:17;;;;;;;;;;;5.60;93.90;;;;;;5072352;28;19912;-74
2022/01/12 09:58:43;;;;;;;;;;;5.40;94.90;;;;;;5072471;28;19908;-74
2022/01/12 10:01:09;;;;;;;;;;;6.50;93.90;;;;;;5071554;28;19915;-74
2022/01/12 10:03:35;;;;;;;;;;;5.90;93.50;;;;;;5071974;28;20427;-74
2022/01/12 10:06:10;;;;;;;;;;;5.50;93.20;;;;;;5071783;28;19909;-74
2022/01/12 10:08:36;;;;;;;;;;;7.30;91.90;;;;;;5082024;28;19916;-74
2022/01/12 10:11:06;;;;;;;;;;;8.30;91.60;;;;;;5092374;28;20421;-74
2022/01/12 10:13:32;;;;;;;;;;;8.60;87.00;;;;;;5092087;28;20007;-74
2022/01/12 10:15:57;;;;;;;;;;;9.20;84.70;;;;;;5092196;28;20156;-74
2022/01/12 10:18:23;;;;;;;;;;;9.70;83.00;;;;;;5092041;28;19987;-74
2022/01/12 10:20:49;;;;;;;;;;;10.30;79.60;;;;;;5092282;28;19908;-74
2022/01/12 10:23:15;;;;;;;;;;;10.70;77.90;;;;;;5092188;28;19908;-74
2022/01/12 10:25:46;;;;;;;;;;;10.50;74.80;;;;;;5092671;28;19908;-73
2022/01/12 10:28:12;;;;;;;;;;;10.20;72.80;;;;;;5092217;28;19912;-73
2022/01/12 10:30:37;;;;;;;;;;;9.90;72.90;;;;;;5090607;28;19962;-73
2022/01/12 10:33:04;;;;;;;;;;;8.40;76.10;;;;;;5091864;28;20003;-73
2022/01/12 10:35:31;;;;;;;;;;;7.20;80.80;;;;;;5092326;28;20006;-73
2022/01/12 10:38:07;;;;;;;;;;;6.90;85.00;;;;;;5070415;28;19954;-73
2022/01/12 10:40:51;;;;;;;;;;;6.70;84.10;;;;;;5071043;28;20011;-73
2022/01/12 10:43:30;;;;;;;;;;;6.00;86.30;;;;;;5067521;28;19908;-72
2022/01/12 10:45:56;;;;;;;;;;;5.30;87.10;;;;;;5092511;28;20145;-73
2022/01/12 10:48:24;;;;;;;;;;;4.60;89.70;;;;;;5092060;28;19912;-73
2022/01/12 10:50:53;;;;;;;;;;;4.40;90.20;;;;;;5092040;28;19908;-73
2022/01/12 10:53:45;;;;;;;;;;;4.60;90.60;;;;;;5091021;28;20373;-73
2022/01/12 10:56:12;;;;;;;;;;;4.70;90.30;;;;;;5087598;28;19912;-73
2022/01/12 10:58:40;;;;;;;;;;;3.70;91.30;;;;;;5073384;28;19912;-75
2022/01/12 11:01:06;;;;;;;;;;;3.10;92.30;;;;;;5086511;28;20384;-73
2022/01/12 11:03:32;;;;;;;;;;;2.00;93.70;;;;;;5091316;28;19908;-73
2022/01/12 11:05:58;;;;;;;;;;;1.80;95.20;;;;;;5091424;28;20387;-73
2022/01/12 11:08:24;;;;;;;;;;;1.80;96.50;;;;;;5083249;28;19916;-72
2022/01/12 11:10:50;;;;;;;;;;;1.70;95.40;;;;;;5071289;28;19912;-73
2022/01/12 11:13:16;;;;;;;;;;;2.20;94.90;;;;;;5071821;28;20050;-73
2022/01/12 11:15:42;;;;;;;;;;;1.90;96.70;;;;;;5083128;28;20052;-73
2022/01/12 11:18:08;;;;;;;;;;;1.90;96.20;;;;;;5095467;28;19962;-72
2022/01/12 11:20:33;;;;;;;;;;;1.80;96.30;;;;;;5095669;28;19908;-72
2022/01/12 11:23:11;;;;;;;;;;;1.30;97.20;;;;;;5095003;28;20384;-73
2022/01/12 11:25:42;;;;;;;;;;;0.80;97.30;;;;;;5095461;28;19908;-73
2022/01/12 11:28:10;;;;;;;;;;;0.60;99.50;;;;;;5095505;28;19919;-72
2022/01/12 11:30:37;;;;;;;;;;;0.40;99.50;;;;;;5093620;28;19918;-73
2022/01/12 11:33:04;;;;;;;;;;;0.40;99.90;;;;;;5095006;28;19936;-73
2022/01/12 11:35:32;;;;;;;;;;;0.20;99.40;;;;;;5094972;28;19939;-72
2022/01/12 11:38:00;;;;;;;;;;;0.10;99.70;;;;;;5091777;28;19939;-72
2022/01/12 11:40:38;;;;;;;;;;;0.10;99.90;;;;;;5083777;28;19969;-73
2022/01/12 11:43:16;;;;;;;;;;;0.10;99.90;;;;;;5095029;28;19944;-72
2022/01/12 11:45:41;;;;;;;;;;;0.00;99.90;;;;;;5079408;28;19916;-72
2022/01/12 11:48:07;;;;;;;;;;;0.10;99.90;;;;;;5098140;28;19916;-73
2022/01/12 11:50:32;;;;;;;;;;;-0.10;99.90;;;;;;5094848;28;19977;-72
2022/01/12 11:52:58;;;;;;;;;;;0.00;99.90;;;;;;5094262;28;20010;-72
2022/01/12 11:55:30;;;;;;;;;;;0.00;99.90;;;;;;5094807;28;19908;-72
2022/01/12 11:58:01;;;;;;;;;;;0.10;99.90;;;;;;5090830;28;19916;-73
2022/01/12 12:00:30;;;;;;;;;;;0.10;99.90;;;;;;5073739;28;19908;-72
2022/01/12 12:02:56;;;;;;;;;;;0.10;99.90;;;;;;5074046;28;19920;-72
2022/01/12 12:05:26;;;;;;;;;;;0.10;99.90;;;;;;5074269;28;19915;-72
2022/01/12 12:07:55;;;;;;;;;;;0.10;99.90;;;;;;5074051;28;19939;-72
2022/01/12 12:10:25;;;;;;;;;;;0.10;99.90;;;;;;5074159;28;20361;-72
2022/01/12 12:12:51;;;;;;;;;;;0.10;99.90;;;;;;5073879;28;19909;-72
2022/01/12 12:15:17;;;;;;;;;;;0.30;99.90;;;;;;5073773;28;19959;-72
2022/01/12 12:17:43;;;;;;;;;;;0.30;99.90;;;;;;5074263;28;19908;-72
2022/01/12 12:20:13;;;;;;;;;;;0.30;99.90;;;;;;5074744;28;20292;-72
2022/01/12 12:22:40;;;;;;;;;;;0.20;99.90;;;;;;5074818;28;19915;-71
2022/01/12 12:25:11;;;;;;;;;;;0.10;99.90;;;;;;5073345;28;20003;-72
2022/01/12 12:27:38;;;;;;;;;;;0.10;99.90;;;;;;5075415;28;19916;-72
2022/01/12 12:30:05;;;;;;;;;;;0.10;99.90;;;;;;5058641;28;20342;-72
2022/01/12 12:32:35;;;;;;;;;;;0.20;99.90;;;;;;5072297;28;20002;-72
2022/01/12 12:35:03;;;;;;;;;;;0.00;99.90;;;;;;5093736;28;19908;-72
2022/01/12 12:37:36;;;;;;;;;;;0.00;99.90;;;;;;5094623;28;19915;-72
2022/01/12 12:40:10;;;;;;;;;;;-0.10;99.90;;;;;;5091707;28;19915;-72
2022/01/12 12:42:38;;;;;;;;;;;-0.10;99.90;;;;;;5085711;28;19966;-72
2022/01/12 12:45:04;;;;;;;;;;;-0.10;99.90;;;;;;5073415;28;20377;-72
2022/01/12 12:47:31;;;;;;;;;;;0.00;99.90;;;;;;5073466;28;19935;-72
2022/01/12 12:49:57;;;;;;;;;;;0.00;99.90;;;;;;5073100;28;19912;-72
2022/01/12 12:52:33;;;;;;;;;;;0.00;99.90;;;;;;5073539;28;19908;-72
2022/01/12 12:54:59;;;;;;;;;;;0.00;99.90;;;;;;5072990;28;19912;-72
2022/01/12 12:57:26;;;;;;;;;;;-0.10;99.90;;;;;;5074679;28;19961;-72
2022/01/12 13:00:03;;;;;;;;;;;-0.10;99.90;;;;;;5073969;28;19909;-72
2022/01/12 13:02:37;;;;;;;;;;;0.00;99.90;;;;;;5080674;28;20322;-72
2022/01/12 13:05:06;;;;;;;;;;;-0.10;99.90;;;;;;5072597;28;19915;-72
2022/01/12 13:07:36;;;;;;;;;;;-0.10;99.90;;;;;;5073314;28;20429;-72
2022/01/12 13:10:06;;;;;;;;;;;-0.10;99.90;;;;;;5073371;28;19916;-72
2022/01/12 13:12:35;;;;;;;;;;;0.00;99.90;;;;;;5073169;28;19909;-72
2022/01/12 13:15:00;;;;;;;;;;;-0.10;99.90;;;;;;5072811;28;20007;-72
2022/01/12 13:17:26;;;;;;;;;;;-0.20;99.90;;;;;;5073370;28;19950;-72
2022/01/12 13:22:30;;;;;;;;;;;-0.10;99.90;;;;;;5073022;28;19912;-72
2022/01/12 13:24:57;;;;;;;;;;;-0.10;99.90;;;;;;5072395;28;19912;-72
2022/01/12 13:27:23;;;;;;;;;;;-0.10;99.90;;;;;;5072714;28;19983;-72
2022/01/12 13:29:49;;;;;;;;;;;0.00;99.90;;;;;;5075523;28;19943;-72
2022/01/12 13:32:15;;;;;;;;;;;0.00;99.90;;;;;;5085858;28;19948;-72
2022/01/12 13:34:43;;;;;;;;;;;0.00;99.90;;;;;;5093090;28;20446;-71
2022/01/12 13:37:15;;;;;;;;;;;0.00;99.90;;;;;;5091266;28;19927;-72
2022/01/12 13:39:42;;;;;;;;;;;0.20;99.90;;;;;;5085646;28;20396;-72
2022/01/12 13:42:07;;;;;;;;;;;0.20;99.90;;;;;;5071964;28;19909;-72
2022/01/12 13:44:33;;;;;;;;;;;0.10;99.90;;;;;;5071645;28;19916;-71
2022/01/12 13:47:11;;;;;;;;;;;0.10;99.90;;;;;;5072485;28;20277;-74
2022/01/12 13:49:37;;;;;;;;;;;0.10;99.90;;;;;;5072190;28;19909;-71
2022/01/12 13:52:04;;;;;;;;;;;0.00;99.90;;;;;;5072073;28;19962;-72
2022/01/12 13:54:34;;;;;;;;;;;0.00;99.90;;;;;;5071889;28;19954;-72
2022/01/12 13:57:00;;;;;;;;;;;0.00;99.90;;;;;;5053977;28;19909;-71
2022/01/12 13:59:29;;;;;;;;;;;0.00;99.90;;;;;;5073163;28;20389;-71
2022/01/12 14:01:56;;;;;;;;;;;0.00;99.90;;;;;;5071556;28;19908;-72
2022/01/12 14:04:27;;;;;;;;;;;0.00;99.90;;;;;;5071203;28;19923;-72
2022/01/12 14:06:53;;;;;;;;;;;0.00;99.90;;;;;;5071906;28;19912;-72
2022/01/12 14:09:29;;;;;;;;;;;0.00;99.90;;;;;;5071821;28;20382;-74
2022/01/12 14:11:55;;;;;;;;;;;0.10;99.90;;;;;;5071865;28;19943;-72
2022/01/12 14:14:22;;;;;;;;;;;0.10;99.90;;;;;;5071311;28;20357;-72
2022/01/12 14:16:48;;;;;;;;;;;0.10;99.90;;;;;;5071941;28;19908;-72
2022/01/12 14:19:14;;;;;;;;;;;0.20;99.90;;;;;;5072396;28;20289;-71
2022/01/12 14:21:41;;;;;;;;;;;0.40;99.90;;;;;;5053582;28;19908;-72
2022/01/12 14:24:10;;;;;;;;;;;0.40;99.90;;;;;;5071246;28;19931;-72
2022/01/12 14:26:41;;;;;;;;;;;0.40;99.90;;;;;;5071494;28;20320;-71
2022/01/12 14:29:09;;;;;;;;;;;0.30;99.90;;;;;;5072578;28;19912;-71
2022/01/12 14:31:35;;;;;;;;;;;0.10;99.90;;;;;;5071475;28;19916;-72
2022/01/12 14:34:00;;;;;;;;;;;0.00;99.90;;;;;;5071373;28;19909;-72
2022/01/12 14:36:26;;;;;;;;;;;-0.10;99.90;;;;;;5071514;28;19916;-71
2022/01/12 14:38:52;;;;;;;;;;;-0.30;99.90;;;;;;5070950;28;19909;-72
2022/01/12 14:41:17;;;;;;;;;;;-0.10;99.90;;;;;;5076556;28;19912;-74
2022/01/12 14:43:43;;;;;;;;;;;-0.10;99.90;;;;;;5073089;28;20018;-72
2022/01/12 14:46:09;;;;;;;;;;;-0.20;99.90;;;;;;5091783;28;20284;-72
2022/01/12 14:48:34;;;;;;;;;;;-0.30;99.90;;;;;;5091654;28;19919;-72
2022/01/12 14:51:00;;;;;;;;;;;-0.30;99.90;;;;;;5092118;28;19916;-72
2022/01/12 14:53:26;;;;;;;;;;;-0.40;99.90;;;;;;5091029;28;19912;-72
2022/01/12 14:55:53;;;;;;;;;;;-0.30;99.90;;;;;;5091835;28;19939;-72
2022/01/12 14:58:19;;;;;;;;;;;-0.20;99.90;;;;;;5085052;28;20392;-72
2022/01/12 15:00:45;;;;;;;;;;;-0.30;99.90;;;;;;5073998;28;19915;-72
2022/01/12 15:03:11;;;;;;;;;;;-0.20;99.90;;;;;;5090242;28;19908;-72
2022/01/12 15:05:38;;;;;;;;;;;0.00;99.90;;;;;;5091178;28;19938;-72
2022/01/12 15:08:04;;;;;;;;;;;-0.30;99.90;;;;;;5090718;28;20392;-72
2022/01/12 15:10:30;;;;;;;;;;;-0.30;99.90;;;;;;5091180;28;19908;-72
2022/01/12 15:13:03;;;;;;;;;;;-0.40;99.90;;;;;;5072848;28;20277;-70
2022/01/12 15:15:28;;;;;;;;;;;-0.60;99.90;;;;;;5071277;28;19916;-72
2022/01/12 15:17:54;;;;;;;;;;;-0.80;99.90;;;;;;5072796;28;19908;-72
2022/01/12 15:20:19;;;;;;;;;;;-0.50;99.90;;;;;;5090954;28;19912;-71
2022/01/12 15:22:46;;;;;;;;;;;-0.70;99.90;;;;;;5090865;28;19912;-71
2022/01/12 15:25:13;;;;;;;;;;;-0.70;99.90;;;;;;5090444;28;19908;-71
2022/01/12 15:27:38;;;;;;;;;;;-0.80;99.90;;;;;;5090493;28;19912;-72
2022/01/12 15:30:05;;;;;;;;;;;-1.00;99.90;;;;;;5077103;28;19915;-72
2022/01/12 15:32:31;;;;;;;;;;;-1.10;99.90;;;;;;5074779;28;19912;-72
2022/01/12 15:34:56;;;;;;;;;;;-1.00;99.90;;;;;;5070230;28;19916;-72
2022/01/12 15:37:23;;;;;;;;;;;-0.80;99.90;;;;;;5070882;28;19909;-71
2022/01/12 15:39:48;;;;;;;;;;;-0.80;99.90;;;;;;5053591;28;19909;-72